Meteo Giornale » Osservazioni meteo Stati Uniti (USA) » Corpus Christi
ore: 15:56 - Osservazioni Meteo Corpus Christi
Lat. 27° 41' N Lon. 97° 17' W Alt. 5 metri s.l.m.
33 °C
Nuvoloso
Temp. 24 Ore
28 °C
33 °C
Est/Sud-Est
27.8 Km/h
Dew point 24 °C
Umidità 59 %
Visibilità 10 Km
Il sole sorge alle ore 07:07
Il sole tramonta alle ore 19:51
| Data e Ora | Cielo e Fenomeni | T °C | DP °C | Um. % | Pres. hPa | Vis. km | Vento km/h | |
|---|---|---|---|---|---|---|---|---|
| Oggi h: 15:56 | Nuvoloso | 33 | 24 | 59 | 1013 | 10 | E/SE 27.8 | |
| Oggi h: 14:56 | Nuvoloso | 33 | 25 | 62 | 1014 | 10 | E/SE 27.8 | |
| Oggi h: 13:56 | Nuvoloso | 33 | 25 | 62 | 1015 | 10 | SE 22.2 | |
| Oggi h: 12:56 | Poco Nuvoloso | 33 | 25 | 62 | 1015 | 10 | SE 22.2 | |
| Oggi h: 11:56 | Poco Nuvoloso | 32 | 26 | 70 | 1016 | 10 | SE 18.5 | |
| Oggi h: 10:56 | Poco Nuvoloso | 32 | 26 | 70 | 1016 | 10 | E/SE 14.8 | |
| Oggi h: 09:56 | Nuvoloso | 31 | 25 | 70 | 1015 | 10 | S 11.1 | |
| Oggi h: 08:56 | Nuvoloso | 30 | 26 | 79 | 1014 | 10 | S 14.8 | |
| Oggi h: 07:56 | Nuvoloso | 28 | 26 | 88 | 1014 | 14 | S 7.4 | |
| Oggi h: 06:56 | Poco Nuvoloso | 28 | 26 | 88 | 1013 | 10 | S 11.1 | |
| Oggi h: 05:56 | Poco Nuvoloso | 28 | 26 | 88 | 1013 | 10 | S 13 | |
| Oggi h: 04:56 | Poco Nuvoloso | 28 | 26 | 88 | 1014 | 10 | S 13 | |
| Oggi h: 03:56 | Sereno | 28 | 26 | 88 | 1014 | 10 | S/SE 14.8 | |
| Oggi h: 01:56 | Nuvoloso | 29 | 26 | 83 | 1014 | 10 | S 18.5 | |
| Oggi h: 00:56 | Sereno | 29 | 26 | 83 | 1014 | 10 | S/SE 18.5 | |
| Ieri h: 23:56 | Sereno | 29 | 26 | 83 | 1014 | 10 | S/SE 18.5 | |
| Ieri h: 22:56 | Sereno | 29 | 25 | 79 | 1014 | 10 | SE 20.3 | |
| Ieri h: 21:56 | Sereno | 29 | 25 | 79 | 1014 | 10 | SE 20.3 | |
| Ieri h: 18:56 | Sereno | 31 | 25 | 70 | 1012 | 10 | SE 24 | |
| Ieri h: 17:56 | Sereno | 32 | 25 | 66 | 1012 | 10 | E/SE 31.5 | |
| Ieri h: 16:56 | Sereno | 32 | 25 | 66 | 1012 | 10 | E/SE 29.6 | |



